createdAt,value
2023-12-03T00:01:23.448Z,9.23
2023-12-03T00:04:26.696Z,4.65
2023-12-03T00:07:30.688Z,8.55
2023-12-03T00:10:33.619Z,6.68
2023-12-03T00:13:36.306Z,5.37
2023-12-03T00:16:38.938Z,5.10
2023-12-03T00:19:41.842Z,8.20
2023-12-03T00:22:44.712Z,7.25
2023-12-03T00:25:47.350Z,6.15
2023-12-03T00:28:50.013Z,3.57
2023-12-03T00:31:53.451Z,5.47
2023-12-03T00:34:56.073Z,6.50
2023-12-03T00:37:58.655Z,6.47
2023-12-03T00:41:01.276Z,6.28
2023-12-03T00:44:03.986Z,9.80
2023-12-03T00:47:06.660Z,6.00
2023-12-03T00:50:09.673Z,6.03
2023-12-03T00:53:12.367Z,5.72
2023-12-03T00:56:15.128Z,5.40
2023-12-03T00:59:17.759Z,6.57
2023-12-03T01:02:20.421Z,5.50
2023-12-03T01:05:23.181Z,7.03
2023-12-03T01:08:26.283Z,6.30
2023-12-03T01:11:35.498Z,7.32
2023-12-03T01:14:39.378Z,7.20
2023-12-03T01:17:42.069Z,6.73
2023-12-03T01:20:44.831Z,5.47
2023-12-03T01:23:47.461Z,4.70
2023-12-03T01:26:50.103Z,5.30
2023-12-03T01:29:52.772Z,5.47
2023-12-03T01:32:55.451Z,3.80
2023-12-03T01:35:58.135Z,7.70
2023-12-03T01:39:00.874Z,6.55
2023-12-03T01:42:03.619Z,6.05
2023-12-03T01:45:07.186Z,7.47
2023-12-03T01:48:10.047Z,4.43
2023-12-03T01:51:13.088Z,5.32
2023-12-03T01:54:16.137Z,5.63
2023-12-03T01:57:19.505Z,6.90
2023-12-03T02:00:22.437Z,4.97
2023-12-03T02:03:25.999Z,5.87
2023-12-03T02:06:28.839Z,4.70
2023-12-03T02:09:31.872Z,5.95
2023-12-03T02:12:34.695Z,7.28
2023-12-03T02:15:37.381Z,6.73
2023-12-03T02:18:40.294Z,6.70
2023-12-03T02:21:43.556Z,4.55
2023-12-03T02:24:46.268Z,5.57
2023-12-03T02:27:48.946Z,5.63
2023-12-03T02:30:52.104Z,6.57
2023-12-03T02:34:11.952Z,6.43
2023-12-03T02:37:14.597Z,6.38
2023-12-03T02:40:17.321Z,5.05
2023-12-03T02:43:20.058Z,5.65
2023-12-03T02:46:23.161Z,2.53
2023-12-03T02:49:25.831Z,7.40
2023-12-03T02:52:28.665Z,4.72
2023-12-03T02:55:31.336Z,5.15
2023-12-03T02:58:34.670Z,6.20
2023-12-03T03:01:37.352Z,4.87
2023-12-03T03:04:40.073Z,2.93
2023-12-03T03:07:42.772Z,5.22
2023-12-03T03:10:45.407Z,6.90
2023-12-03T03:13:48.052Z,5.50
2023-12-03T03:16:50.921Z,5.27
2023-12-03T03:19:54.594Z,4.17
2023-12-03T03:22:57.329Z,5.07
2023-12-03T03:25:59.939Z,5.10
2023-12-03T03:29:02.596Z,5.07
2023-12-03T03:32:05.916Z,6.20
2023-12-03T03:35:09.154Z,5.77
2023-12-03T03:38:11.839Z,5.47
2023-12-03T03:41:14.442Z,5.82
2023-12-03T03:44:17.112Z,5.43
2023-12-03T03:47:19.733Z,4.50
2023-12-03T03:50:22.315Z,4.73
2023-12-03T03:53:24.945Z,5.30
2023-12-03T03:56:27.858Z,5.53
2023-12-03T03:59:30.464Z,4.32
2023-12-03T04:02:33.211Z,8.37
2023-12-03T04:05:35.854Z,2.77
2023-12-03T04:08:40.182Z,3.60
2023-12-03T04:11:44.444Z,4.50
2023-12-03T04:14:47.085Z,4.88
2023-12-03T04:17:49.718Z,4.87
2023-12-03T04:20:52.407Z,4.43
2023-12-03T04:23:55.023Z,4.75
2023-12-03T04:26:57.613Z,4.50
2023-12-03T04:30:00.253Z,2.45
2023-12-03T04:33:02.958Z,7.37
2023-12-03T04:36:08.782Z,6.50
2023-12-03T04:39:11.537Z,4.80
2023-12-03T04:42:14.183Z,4.93
2023-12-03T04:45:16.817Z,2.45
2023-12-03T04:48:19.574Z,4.10
2023-12-03T04:51:22.277Z,5.57
2023-12-03T04:54:24.953Z,4.35
2023-12-03T04:57:27.613Z,3.45
2023-12-03T05:00:30.320Z,4.18
2023-12-03T05:03:33.426Z,4.87
2023-12-03T05:06:36.295Z,2.97
2023-12-03T05:09:41.870Z,5.43
2023-12-03T05:12:44.622Z,3.05
2023-12-03T05:15:47.371Z,4.05
2023-12-03T05:18:50.155Z,4.57
2023-12-03T05:21:52.910Z,5.57
2023-12-03T05:24:55.619Z,5.00
2023-12-03T05:27:58.347Z,5.43
2023-12-03T05:31:01.076Z,7.18
2023-12-03T05:34:04.222Z,4.40
2023-12-03T05:37:06.935Z,6.10
2023-12-03T05:40:10.230Z,5.05
2023-12-03T05:43:12.889Z,3.80
2023-12-03T05:46:15.491Z,5.68
2023-12-03T05:49:18.298Z,3.23
2023-12-03T05:52:20.975Z,7.57
2023-12-03T05:55:23.604Z,6.07
2023-12-03T05:58:26.340Z,6.85
2023-12-03T06:01:29.105Z,5.45
2023-12-03T06:04:31.979Z,3.93
2023-12-03T06:07:34.711Z,5.50
2023-12-03T06:10:37.370Z,6.75
2023-12-03T06:13:40.010Z,5.65
2023-12-03T06:16:42.656Z,5.50
2023-12-03T06:19:45.529Z,7.57
2023-12-03T06:22:48.189Z,13.13
2023-12-03T06:25:50.910Z,7.55
2023-12-03T06:28:53.513Z,8.38
2023-12-03T06:31:56.194Z,6.72
2023-12-03T06:34:58.809Z,7.53
2023-12-03T06:38:01.418Z,5.37
2023-12-03T06:41:04.279Z,6.80
2023-12-03T06:44:07.261Z,8.77
2023-12-03T06:47:09.940Z,8.25
2023-12-03T06:50:12.621Z,7.23
2023-12-03T06:53:15.287Z,5.17
2023-12-03T06:56:17.938Z,7.22
2023-12-03T06:59:20.577Z,6.28
2023-12-03T07:02:23.181Z,5.85
2023-12-03T07:05:25.891Z,5.93
2023-12-03T07:08:28.655Z,7.00
2023-12-03T07:11:31.408Z,7.05
2023-12-03T07:14:34.062Z,7.30
2023-12-03T07:17:36.773Z,5.30
2023-12-03T07:20:39.436Z,4.13
2023-12-03T07:23:42.147Z,3.10
2023-12-03T07:26:45.581Z,11.40
2023-12-03T07:29:50.763Z,6.38
2023-12-03T07:32:53.860Z,5.90
2023-12-03T07:35:57.917Z,5.43
2023-12-03T07:39:00.591Z,5.13
2023-12-03T07:42:03.209Z,7.32
2023-12-03T07:45:06.407Z,6.05
2023-12-03T07:48:09.163Z,10.75
2023-12-03T07:51:12.978Z,3.57
2023-12-03T07:54:16.107Z,5.73
2023-12-03T07:57:18.922Z,9.15
2023-12-03T08:00:21.737Z,7.30
2023-12-03T08:03:24.496Z,3.95
2023-12-03T08:06:27.675Z,4.50
2023-12-03T08:09:30.381Z,3.77
2023-12-03T08:12:34.285Z,4.47
2023-12-03T08:15:37.019Z,5.40
2023-12-03T08:18:39.821Z,5.22
2023-12-03T08:21:42.684Z,7.20
2023-12-03T08:24:45.429Z,5.27
2023-12-03T08:27:48.247Z,4.53
2023-12-03T08:30:51.112Z,6.93
2023-12-03T08:33:53.865Z,5.32
2023-12-03T08:36:57.170Z,5.20
2023-12-03T08:40:00.831Z,3.80
2023-12-03T08:43:03.477Z,4.65
2023-12-03T08:46:06.497Z,4.65
2023-12-03T08:49:09.816Z,5.20
2023-12-03T08:52:13.700Z,6.43
2023-12-03T08:55:16.422Z,4.00
2023-12-03T08:58:19.076Z,4.40
2023-12-03T09:01:21.783Z,4.22
2023-12-03T09:04:24.479Z,4.18
2023-12-03T09:07:28.620Z,5.93
2023-12-03T09:10:31.264Z,5.43
2023-12-03T09:13:35.787Z,6.00
2023-12-03T09:16:38.497Z,5.25
2023-12-03T09:19:41.256Z,4.63
2023-12-03T09:22:43.996Z,6.03
2023-12-03T09:25:46.701Z,4.57
2023-12-03T09:28:49.320Z,4.50
2023-12-03T09:31:54.622Z,8.43
2023-12-03T09:34:58.894Z,5.28
2023-12-03T09:38:01.552Z,6.30
2023-12-03T09:41:09.587Z,4.60
2023-12-03T09:44:26.969Z,6.57
2023-12-03T09:47:35.337Z,3.42
2023-12-03T09:50:38.700Z,6.82
2023-12-03T09:53:45.636Z,6.43
2023-12-03T09:56:51.399Z,4.07
2023-12-03T09:59:58.878Z,7.55
2023-12-03T10:03:01.880Z,5.85
2023-12-03T10:06:06.103Z,3.80
2023-12-03T10:09:09.100Z,4.43
2023-12-03T10:12:17.754Z,3.77
2023-12-03T10:15:20.762Z,4.45
2023-12-03T10:18:23.718Z,4.63
2023-12-03T10:21:27.052Z,5.93
2023-12-03T10:24:29.870Z,3.57
2023-12-03T10:27:32.852Z,4.73
2023-12-03T10:30:37.775Z,5.10
2023-12-03T10:33:40.664Z,4.07
2023-12-03T10:36:46.479Z,5.80
2023-12-03T10:39:49.252Z,3.00
2023-12-03T10:42:52.242Z,2.87
2023-12-03T10:45:55.274Z,3.42
2023-12-03T10:48:58.789Z,3.47
2023-12-03T10:52:03.320Z,1.95
2023-12-03T10:55:08.050Z,2.87
2023-12-03T10:58:12.137Z,2.63
2023-12-03T11:01:24.638Z,5.43
2023-12-03T11:04:44.193Z,4.75
2023-12-03T11:07:48.167Z,3.13
2023-12-03T11:10:56.298Z,5.00
2023-12-03T11:13:58.976Z,6.27
2023-12-03T11:17:35.400Z,4.95
2023-12-03T11:20:40.681Z,4.97
2023-12-03T11:23:59.307Z,3.42
2023-12-03T11:27:02.054Z,4.20
2023-12-03T11:30:05.692Z,2.83
2023-12-03T11:33:11.792Z,5.18
2023-12-03T11:36:14.672Z,3.42
2023-12-03T11:39:19.642Z,5.70
2023-12-03T11:42:24.905Z,4.80
2023-12-03T11:45:28.822Z,2.57
2023-12-03T11:48:33.079Z,3.05
2023-12-03T11:51:36.461Z,3.88
2023-12-03T11:54:48.317Z,4.63
2023-12-03T11:57:52.700Z,4.63
2023-12-03T12:00:55.494Z,2.17
2023-12-03T12:03:58.198Z,3.65
2023-12-03T12:07:17.360Z,3.50
2023-12-03T12:10:20.328Z,4.03
2023-12-03T12:13:26.241Z,3.43
2023-12-03T12:16:31.354Z,4.20
2023-12-03T12:19:34.420Z,2.88
2023-12-03T12:22:38.984Z,4.25
2023-12-03T12:25:42.715Z,4.43
2023-12-03T12:28:46.781Z,4.57
2023-12-03T12:31:49.789Z,3.97
2023-12-03T12:34:52.841Z,8.40
2023-12-03T12:38:06.879Z,13.52
2023-12-03T12:41:12.074Z,8.13
2023-12-03T12:44:15.182Z,5.63
2023-12-03T12:47:20.963Z,5.63
2023-12-03T12:50:37.798Z,6.40
2023-12-03T12:53:53.307Z,3.53
2023-12-03T12:56:56.101Z,5.97
2023-12-03T12:59:58.763Z,6.87
2023-12-03T13:03:02.226Z,4.47
2023-12-03T13:06:05.033Z,3.05
2023-12-03T13:09:07.723Z,3.08
2023-12-03T13:12:10.566Z,5.07
2023-12-03T13:15:13.795Z,4.27
2023-12-03T13:18:22.555Z,3.27
2023-12-03T13:21:28.237Z,5.05
2023-12-03T13:24:31.811Z,3.17
2023-12-03T13:27:34.819Z,2.58
2023-12-03T13:30:37.604Z,6.80
2023-12-03T13:33:40.408Z,8.87
2023-12-03T13:36:43.260Z,2.13
2023-12-03T13:39:46.042Z,6.30
2023-12-03T13:42:55.737Z,7.53
2023-12-03T13:45:59.516Z,9.30
2023-12-03T13:49:02.668Z,8.07
2023-12-03T13:52:05.377Z,8.82
2023-12-03T13:55:08.594Z,10.82
2023-12-03T13:58:11.389Z,4.47
2023-12-03T14:01:14.801Z,4.23
2023-12-03T14:04:18.655Z,5.03
2023-12-03T14:07:21.413Z,4.30
2023-12-03T14:10:25.436Z,4.57
2023-12-03T14:13:28.237Z,3.90
2023-12-03T14:16:30.955Z,5.43
2023-12-03T14:19:34.353Z,5.70
2023-12-03T14:22:41.890Z,4.78
2023-12-03T14:25:44.944Z,5.07
2023-12-03T14:28:47.634Z,5.28
2023-12-03T14:31:50.259Z,6.63
2023-12-03T14:34:52.896Z,6.50
2023-12-03T14:37:55.544Z,4.25
2023-12-03T14:40:58.160Z,4.97
2023-12-03T14:44:00.769Z,6.70
2023-12-03T14:47:03.955Z,7.23
2023-12-03T14:50:07.490Z,7.80
2023-12-03T14:53:10.123Z,10.13
2023-12-03T14:56:23.646Z,6.38
2023-12-03T14:59:27.157Z,6.30
2023-12-03T15:02:29.821Z,15.90
2023-12-03T15:05:33.001Z,18.20
2023-12-03T15:08:35.730Z,16.42
2023-12-03T15:11:39.131Z,12.18
2023-12-03T15:14:42.559Z,8.50
2023-12-03T15:17:45.245Z,8.83
2023-12-03T15:20:47.935Z,8.17
2023-12-03T15:23:50.759Z,6.63
2023-12-03T15:26:53.545Z,6.20
2023-12-03T15:29:56.238Z,7.85
2023-12-03T15:32:59.049Z,5.97
2023-12-03T15:36:01.802Z,8.30
2023-12-03T15:39:04.525Z,6.50
2023-12-03T15:42:07.490Z,7.65
2023-12-03T15:45:10.465Z,10.00
2023-12-03T15:48:13.626Z,9.30
2023-12-03T15:51:16.608Z,7.50
2023-12-03T15:54:20.740Z,7.78
2023-12-03T15:57:23.449Z,7.63
2023-12-03T16:00:26.166Z,7.95
2023-12-03T16:03:28.925Z,6.43
2023-12-03T16:06:32.483Z,7.30
2023-12-03T16:09:35.227Z,7.55
2023-12-03T16:12:37.989Z,9.13
2023-12-03T16:15:40.694Z,10.93
2023-12-03T16:18:43.531Z,13.50
2023-12-03T16:21:46.339Z,19.37
2023-12-03T16:24:49.084Z,26.67
2023-12-03T16:27:51.847Z,28.92
2023-12-03T16:30:54.508Z,18.83
2023-12-03T16:33:57.444Z,19.93
2023-12-03T16:37:00.268Z,11.83
2023-12-03T16:40:03.943Z,10.82
2023-12-03T16:43:06.868Z,14.05
2023-12-03T16:46:12.887Z,11.55
2023-12-03T16:49:15.604Z,14.17
2023-12-03T16:52:18.514Z,9.33
2023-12-03T16:55:21.206Z,9.88
2023-12-03T16:58:24.063Z,10.43
2023-12-03T17:01:27.641Z,8.57
2023-12-03T17:04:30.333Z,9.70
2023-12-03T17:07:33.836Z,6.77
2023-12-03T17:10:36.795Z,8.23
2023-12-03T17:13:39.655Z,7.85
2023-12-03T17:16:42.642Z,9.38
2023-12-03T17:19:45.413Z,6.93
2023-12-03T17:22:48.490Z,9.03
2023-12-03T17:25:51.199Z,6.70
2023-12-03T17:28:53.891Z,7.85
2023-12-03T17:31:57.026Z,14.30
2023-12-03T17:35:00.132Z,8.47
2023-12-03T17:38:03.811Z,6.50
2023-12-03T17:41:06.452Z,10.10
2023-12-03T17:44:09.222Z,9.02
2023-12-03T17:47:13.168Z,8.45
2023-12-03T17:50:15.874Z,6.80
2023-12-03T17:53:19.574Z,8.10
2023-12-03T17:56:22.526Z,7.43
2023-12-03T17:59:25.578Z,11.88
2023-12-03T18:02:28.314Z,6.97
2023-12-03T18:05:31.146Z,5.20
2023-12-03T18:08:33.837Z,5.67
2023-12-03T18:11:36.472Z,7.75
2023-12-03T18:14:40.541Z,5.68
2023-12-03T18:17:43.493Z,9.25
2023-12-03T18:20:46.580Z,10.37
2023-12-03T18:23:50.186Z,6.67
2023-12-03T18:26:53.286Z,7.75
2023-12-03T18:29:56.374Z,8.52
2023-12-03T18:32:59.496Z,8.25
2023-12-03T18:36:02.257Z,6.90
2023-12-03T18:39:05.168Z,10.60
2023-12-03T18:42:08.504Z,7.88
2023-12-03T18:45:11.600Z,10.10
2023-12-03T18:48:14.793Z,10.90
2023-12-03T18:51:17.765Z,9.37
2023-12-03T18:54:20.713Z,11.83
2023-12-03T18:57:23.567Z,9.00
2023-12-03T19:00:26.629Z,10.52
2023-12-03T19:03:29.888Z,7.15
2023-12-03T19:06:33.492Z,7.77
2023-12-03T19:09:36.713Z,12.37
2023-12-03T19:12:39.980Z,10.35
2023-12-03T19:15:43.563Z,6.80
2023-12-03T19:18:47.561Z,10.18
2023-12-03T19:21:52.044Z,10.60
2023-12-03T19:24:55.648Z,6.63
2023-12-03T19:27:58.646Z,7.70
2023-12-03T19:31:04.125Z,10.85
2023-12-03T19:34:07.234Z,10.30
2023-12-03T19:37:09.938Z,6.90
2023-12-03T19:40:13.534Z,11.93
2023-12-03T19:43:16.259Z,11.80
2023-12-03T19:46:19.243Z,12.00
2023-12-03T19:49:22.368Z,10.75
2023-12-03T19:52:25.353Z,14.13
2023-12-03T19:55:28.322Z,15.30
2023-12-03T19:58:31.148Z,11.55
2023-12-03T20:01:34.690Z,11.38
2023-12-03T20:04:37.750Z,16.13
2023-12-03T20:07:40.483Z,14.30
2023-12-03T20:10:44.294Z,17.97
2023-12-03T20:13:47.384Z,16.58
2023-12-03T20:16:50.409Z,16.98
2023-12-03T20:19:53.642Z,17.67
2023-12-03T20:22:57.417Z,11.60
2023-12-03T20:26:05.958Z,11.83
2023-12-03T20:29:08.611Z,9.40
2023-12-03T20:32:11.307Z,9.60
2023-12-03T20:35:13.957Z,10.65
2023-12-03T20:38:16.572Z,10.17
2023-12-03T20:41:23.984Z,7.97
2023-12-03T20:44:27.537Z,23.85
2023-12-03T20:47:30.209Z,27.02
2023-12-03T20:50:35.230Z,16.67
2023-12-03T20:53:38.094Z,17.50
2023-12-03T20:56:40.716Z,35.60
2023-12-03T20:59:43.467Z,23.33
2023-12-03T21:02:46.128Z,14.40
2023-12-03T21:05:48.798Z,16.50
2023-12-03T21:08:52.809Z,13.50
2023-12-03T21:11:55.531Z,8.17
2023-12-03T21:14:58.221Z,10.43
2023-12-03T21:18:00.954Z,11.77
2023-12-03T21:21:03.860Z,15.05
2023-12-03T21:24:07.250Z,13.47
2023-12-03T21:27:09.960Z,13.37
2023-12-03T21:30:12.960Z,13.30
2023-12-03T21:33:15.808Z,12.45
2023-12-03T21:36:18.596Z,8.52
2023-12-03T21:39:21.367Z,8.80
2023-12-03T21:42:24.492Z,9.47
2023-12-03T21:45:27.890Z,8.15
2023-12-03T21:48:30.661Z,6.57
2023-12-03T21:51:33.756Z,7.22
2023-12-03T21:54:36.636Z,7.60
2023-12-03T21:57:39.456Z,7.73
2023-12-03T22:00:42.931Z,9.10
2023-12-03T22:03:45.686Z,12.70
2023-12-03T22:06:48.502Z,9.98
2023-12-03T22:09:51.829Z,7.97
2023-12-03T22:12:56.508Z,8.30
2023-12-03T22:15:59.326Z,12.13
2023-12-03T22:19:02.073Z,16.52
2023-12-03T22:22:05.298Z,18.13
2023-12-03T22:25:08.240Z,15.52
2023-12-03T22:28:10.943Z,12.07
2023-12-03T22:31:13.662Z,10.20
2023-12-03T22:34:16.518Z,15.27
2023-12-03T22:37:19.172Z,17.63
2023-12-03T22:40:21.929Z,19.33
2023-12-03T22:43:24.602Z,19.60
2023-12-03T22:46:27.994Z,17.48
2023-12-03T22:49:31.294Z,15.90
2023-12-03T22:52:35.880Z,19.03
2023-12-03T22:55:38.705Z,18.33
2023-12-03T22:58:41.401Z,13.52
2023-12-03T23:01:44.194Z,14.93
2023-12-03T23:04:47.071Z,18.83
2023-12-03T23:07:49.755Z,15.10
2023-12-03T23:10:52.410Z,19.33
2023-12-03T23:13:55.223Z,18.02
2023-12-03T23:16:57.912Z,10.40
2023-12-03T23:20:00.759Z,16.07
2023-12-03T23:23:03.823Z,11.87
2023-12-03T23:26:07.115Z,10.18
2023-12-03T23:29:10.028Z,13.80
2023-12-03T23:32:15.113Z,9.70
2023-12-03T23:35:18.524Z,12.37
2023-12-03T23:38:21.138Z,9.17
2023-12-03T23:41:25.852Z,16.20
2023-12-03T23:44:28.552Z,14.60
2023-12-03T23:47:31.252Z,15.73
2023-12-03T23:50:34.018Z,16.43
2023-12-03T23:53:37.181Z,15.53
2023-12-03T23:56:39.822Z,11.45
2023-12-03T23:59:42.437Z,10.98
